sensor_id;sensor_type;location;lat;lon;timestamp;P1;durP1;ratioP1;P2;durP2;ratioP2
75785;SDS011;64402;44.708;37.644;2023-05-10T00:01:17;0.85;;;0.10;;
75785;SDS011;64402;44.708;37.644;2023-05-10T00:03:43;0.17;;;0.15;;
75785;SDS011;64402;44.708;37.644;2023-05-10T00:06:09;0.45;;;0.15;;
75785;SDS011;64402;44.708;37.644;2023-05-10T00:08:36;0.55;;;0.20;;
75785;SDS011;64402;44.708;37.644;2023-05-10T00:11:02;0.45;;;0.30;;
75785;SDS011;64402;44.708;37.644;2023-05-10T00:13:28;1.15;;;0.20;;
75785;SDS011;64402;44.708;37.644;2023-05-10T00:15:55;1.75;;;0.55;;
75785;SDS011;64402;44.708;37.644;2023-05-10T00:18:21;0.15;;;0.10;;
75785;SDS011;64402;44.708;37.644;2023-05-10T00:20:48;0.40;;;0.20;;
75785;SDS011;64402;44.708;37.644;2023-05-10T00:23:14;0.10;;;0.10;;
75785;SDS011;64402;44.708;37.644;2023-05-10T00:25:41;0.40;;;0.10;;
75785;SDS011;64402;44.708;37.644;2023-05-10T00:28:07;0.10;;;0.10;;
75785;SDS011;64402;44.708;37.644;2023-05-10T00:30:33;0.15;;;0.10;;
75785;SDS011;64402;44.708;37.644;2023-05-10T00:33:00;1.27;;;0.13;;
75785;SDS011;64402;44.708;37.644;2023-05-10T00:35:26;0.20;;;0.10;;
75785;SDS011;64402;44.708;37.644;2023-05-10T00:37:53;0.20;;;0.10;;
75785;SDS011;64402;44.708;37.644;2023-05-10T00:40:26;0.10;;;0.10;;
75785;SDS011;64402;44.708;37.644;2023-05-10T00:43:00;0.20;;;0.00;;
75785;SDS011;64402;44.708;37.644;2023-05-10T00:45:27;0.52;;;0.20;;
75785;SDS011;64402;44.708;37.644;2023-05-10T00:47:53;0.22;;;0.15;;
75785;SDS011;64402;44.708;37.644;2023-05-10T00:50:21;2.05;;;0.15;;
75785;SDS011;64402;44.708;37.644;2023-05-10T00:52:49;0.32;;;0.00;;
75785;SDS011;64402;44.708;37.644;2023-05-10T00:55:16;0.60;;;0.30;;
75785;SDS011;64402;44.708;37.644;2023-05-10T00:57:42;0.45;;;0.20;;
75785;SDS011;64402;44.708;37.644;2023-05-10T01:00:09;0.10;;;0.10;;
75785;SDS011;64402;44.708;37.644;2023-05-10T01:05:03;2.17;;;0.30;;
75785;SDS011;64402;44.708;37.644;2023-05-10T01:07:29;0.45;;;0.10;;
75785;SDS011;64402;44.708;37.644;2023-05-10T01:09:56;0.10;;;0.10;;
75785;SDS011;64402;44.708;37.644;2023-05-10T01:12:23;0.20;;;0.13;;
75785;SDS011;64402;44.708;37.644;2023-05-10T01:14:49;0.95;;;0.30;;
75785;SDS011;64402;44.708;37.644;2023-05-10T01:17:16;0.10;;;0.10;;
75785;SDS011;64402;44.708;37.644;2023-05-10T01:19:43;0.10;;;0.10;;
75785;SDS011;64402;44.708;37.644;2023-05-10T01:22:17;2.40;;;0.20;;
75785;SDS011;64402;44.708;37.644;2023-05-10T01:24:57;8.00;;;0.40;;
75785;SDS011;64402;44.708;37.644;2023-05-10T01:28:08;1.65;;;0.25;;
75785;SDS011;64402;44.708;37.644;2023-05-10T01:36:31;0.45;;;0.20;;
75785;SDS011;64402;44.708;37.644;2023-05-10T01:39:07;1.17;;;0.30;;
75785;SDS011;64402;44.708;37.644;2023-05-10T01:42:03;0.20;;;0.10;;
75785;SDS011;64402;44.708;37.644;2023-05-10T01:47:14;0.52;;;0.20;;
75785;SDS011;64402;44.708;37.644;2023-05-10T01:49:47;1.90;;;0.20;;
75785;SDS011;64402;44.708;37.644;2023-05-10T01:52:16;3.50;;;0.25;;
75785;SDS011;64402;44.708;37.644;2023-05-10T01:54:49;0.60;;;0.20;;
75785;SDS011;64402;44.708;37.644;2023-05-10T01:57:21;0.40;;;0.20;;
75785;SDS011;64402;44.708;37.644;2023-05-10T01:59:51;1.65;;;0.20;;
75785;SDS011;64402;44.708;37.644;2023-05-10T02:02:20;0.47;;;0.30;;
75785;SDS011;64402;44.708;37.644;2023-05-10T02:04:49;0.50;;;0.25;;
75785;SDS011;64402;44.708;37.644;2023-05-10T02:09:43;0.85;;;0.20;;
75785;SDS011;64402;44.708;37.644;2023-05-10T02:12:13;1.17;;;0.45;;
75785;SDS011;64402;44.708;37.644;2023-05-10T02:14:41;3.00;;;0.50;;
75785;SDS011;64402;44.708;37.644;2023-05-10T02:17:08;1.50;;;0.50;;
75785;SDS011;64402;44.708;37.644;2023-05-10T02:19:38;0.22;;;0.20;;
75785;SDS011;64402;44.708;37.644;2023-05-10T02:22:06;1.23;;;0.50;;
75785;SDS011;64402;44.708;37.644;2023-05-10T02:24:33;1.85;;;0.55;;
75785;SDS011;64402;44.708;37.644;2023-05-10T02:27:02;5.00;;;0.93;;
75785;SDS011;64402;44.708;37.644;2023-05-10T02:29:30;10.02;;;4.43;;
75785;SDS011;64402;44.708;37.644;2023-05-10T02:31:57;4.40;;;1.73;;
75785;SDS011;64402;44.708;37.644;2023-05-10T02:34:25;1.27;;;0.50;;
75785;SDS011;64402;44.708;37.644;2023-05-10T02:36:53;2.10;;;0.63;;
75785;SDS011;64402;44.708;37.644;2023-05-10T02:39:20;1.25;;;0.50;;
75785;SDS011;64402;44.708;37.644;2023-05-10T02:41:48;1.77;;;0.50;;
75785;SDS011;64402;44.708;37.644;2023-05-10T02:44:17;2.15;;;0.70;;
75785;SDS011;64402;44.708;37.644;2023-05-10T02:46:45;0.90;;;0.45;;
75785;SDS011;64402;44.708;37.644;2023-05-10T02:49:12;1.23;;;0.52;;
75785;SDS011;64402;44.708;37.644;2023-05-10T02:51:40;4.90;;;0.60;;
75785;SDS011;64402;44.708;37.644;2023-05-10T02:54:11;1.30;;;0.60;;
75785;SDS011;64402;44.708;37.644;2023-05-10T02:56:42;1.42;;;0.55;;
75785;SDS011;64402;44.708;37.644;2023-05-10T02:59:15;1.25;;;0.55;;
75785;SDS011;64402;44.708;37.644;2023-05-10T03:01:41;1.65;;;0.60;;
75785;SDS011;64402;44.708;37.644;2023-05-10T03:04:08;1.95;;;0.55;;
75785;SDS011;64402;44.708;37.644;2023-05-10T03:06:34;1.33;;;0.50;;
75785;SDS011;64402;44.708;37.644;2023-05-10T03:09:01;1.98;;;0.80;;
75785;SDS011;64402;44.708;37.644;2023-05-10T03:16:33;1.15;;;0.50;;
75785;SDS011;64402;44.708;37.644;2023-05-10T03:19:22;1.52;;;0.70;;
75785;SDS011;64402;44.708;37.644;2023-05-10T03:21:53;1.45;;;0.65;;
75785;SDS011;64402;44.708;37.644;2023-05-10T03:24:23;2.33;;;0.55;;
75785;SDS011;64402;44.708;37.644;2023-05-10T03:26:55;2.33;;;0.65;;
75785;SDS011;64402;44.708;37.644;2023-05-10T03:29:25;1.92;;;0.77;;
75785;SDS011;64402;44.708;37.644;2023-05-10T03:34:23;1.88;;;0.63;;
75785;SDS011;64402;44.708;37.644;2023-05-10T03:36:52;2.22;;;0.60;;
75785;SDS011;64402;44.708;37.644;2023-05-10T03:39:18;1.67;;;0.43;;
75785;SDS011;64402;44.708;37.644;2023-05-10T03:41:44;1.58;;;0.70;;
75785;SDS011;64402;44.708;37.644;2023-05-10T03:44:11;1.08;;;0.50;;
75785;SDS011;64402;44.708;37.644;2023-05-10T03:46:37;1.65;;;0.60;;
75785;SDS011;64402;44.708;37.644;2023-05-10T03:49:03;0.35;;;0.35;;
75785;SDS011;64402;44.708;37.644;2023-05-10T03:51:29;1.75;;;0.55;;
75785;SDS011;64402;44.708;37.644;2023-05-10T03:53:56;1.75;;;0.60;;
75785;SDS011;64402;44.708;37.644;2023-05-10T03:56:22;1.48;;;0.50;;
75785;SDS011;64402;44.708;37.644;2023-05-10T03:58:48;0.52;;;0.30;;
75785;SDS011;64402;44.708;37.644;2023-05-10T04:01:14;2.55;;;0.57;;
75785;SDS011;64402;44.708;37.644;2023-05-10T04:03:41;0.82;;;0.40;;
75785;SDS011;64402;44.708;37.644;2023-05-10T04:06:07;2.38;;;0.40;;
75785;SDS011;64402;44.708;37.644;2023-05-10T04:08:34;1.30;;;0.60;;
75785;SDS011;64402;44.708;37.644;2023-05-10T04:11:07;1.15;;;0.40;;
75785;SDS011;64402;44.708;37.644;2023-05-10T04:13:34;1.60;;;0.63;;
75785;SDS011;64402;44.708;37.644;2023-05-10T04:16:01;1.45;;;0.50;;
75785;SDS011;64402;44.708;37.644;2023-05-10T04:18:27;3.60;;;0.75;;
75785;SDS011;64402;44.708;37.644;2023-05-10T04:20:54;2.53;;;0.63;;
75785;SDS011;64402;44.708;37.644;2023-05-10T04:23:20;3.35;;;0.68;;
75785;SDS011;64402;44.708;37.644;2023-05-10T04:25:46;2.03;;;0.80;;
75785;SDS011;64402;44.708;37.644;2023-05-10T04:28:13;0.80;;;0.47;;
75785;SDS011;64402;44.708;37.644;2023-05-10T04:30:39;2.58;;;0.63;;
75785;SDS011;64402;44.708;37.644;2023-05-10T04:33:05;2.40;;;0.63;;
75785;SDS011;64402;44.708;37.644;2023-05-10T04:35:32;2.25;;;0.73;;
75785;SDS011;64402;44.708;37.644;2023-05-10T04:37:58;1.50;;;0.68;;
75785;SDS011;64402;44.708;37.644;2023-05-10T04:40:24;6.25;;;0.60;;
75785;SDS011;64402;44.708;37.644;2023-05-10T04:42:50;4.38;;;0.93;;
75785;SDS011;64402;44.708;37.644;2023-05-10T04:45:16;1.90;;;0.60;;
75785;SDS011;64402;44.708;37.644;2023-05-10T04:47:43;4.43;;;0.70;;
75785;SDS011;64402;44.708;37.644;2023-05-10T04:50:09;3.20;;;0.93;;
75785;SDS011;64402;44.708;37.644;2023-05-10T04:52:35;4.47;;;1.08;;
75785;SDS011;64402;44.708;37.644;2023-05-10T04:55:01;2.83;;;1.00;;
75785;SDS011;64402;44.708;37.644;2023-05-10T04:57:28;2.65;;;0.70;;
75785;SDS011;64402;44.708;37.644;2023-05-10T04:59:54;3.83;;;0.85;;
75785;SDS011;64402;44.708;37.644;2023-05-10T05:02:20;2.45;;;0.65;;
75785;SDS011;64402;44.708;37.644;2023-05-10T05:04:47;4.43;;;1.30;;
75785;SDS011;64402;44.708;37.644;2023-05-10T05:07:13;5.82;;;0.93;;
75785;SDS011;64402;44.708;37.644;2023-05-10T05:09:39;3.40;;;0.70;;
75785;SDS011;64402;44.708;37.644;2023-05-10T05:12:05;4.85;;;0.80;;
75785;SDS011;64402;44.708;37.644;2023-05-10T05:14:31;1.67;;;0.75;;
75785;SDS011;64402;44.708;37.644;2023-05-10T05:16:57;2.70;;;0.60;;
75785;SDS011;64402;44.708;37.644;2023-05-10T05:19:24;2.35;;;0.68;;
75785;SDS011;64402;44.708;37.644;2023-05-10T05:21:50;4.15;;;0.80;;
75785;SDS011;64402;44.708;37.644;2023-05-10T05:24:16;6.10;;;1.17;;
75785;SDS011;64402;44.708;37.644;2023-05-10T05:26:42;5.88;;;1.42;;
75785;SDS011;64402;44.708;37.644;2023-05-10T05:29:09;6.10;;;1.45;;
75785;SDS011;64402;44.708;37.644;2023-05-10T05:31:35;6.63;;;1.50;;
75785;SDS011;64402;44.708;37.644;2023-05-10T05:34:01;9.10;;;1.27;;
75785;SDS011;64402;44.708;37.644;2023-05-10T05:36:27;2.83;;;0.80;;
75785;SDS011;64402;44.708;37.644;2023-05-10T05:38:53;3.30;;;0.98;;
75785;SDS011;64402;44.708;37.644;2023-05-10T05:41:19;1.63;;;0.63;;
75785;SDS011;64402;44.708;37.644;2023-05-10T05:43:46;2.80;;;0.77;;
75785;SDS011;64402;44.708;37.644;2023-05-10T05:46:13;2.50;;;0.50;;
75785;SDS011;64402;44.708;37.644;2023-05-10T05:48:39;2.17;;;0.60;;
75785;SDS011;64402;44.708;37.644;2023-05-10T05:51:05;1.45;;;0.55;;
75785;SDS011;64402;44.708;37.644;2023-05-10T05:53:31;0.88;;;0.40;;
75785;SDS011;64402;44.708;37.644;2023-05-10T05:55:57;4.72;;;0.77;;
75785;SDS011;64402;44.708;37.644;2023-05-10T05:58:24;2.20;;;0.77;;
75785;SDS011;64402;44.708;37.644;2023-05-10T06:00:51;3.30;;;1.10;;
75785;SDS011;64402;44.708;37.644;2023-05-10T06:03:18;6.13;;;1.67;;
75785;SDS011;64402;44.708;37.644;2023-05-10T06:05:44;5.57;;;1.70;;
75785;SDS011;64402;44.708;37.644;2023-05-10T06:08:10;5.53;;;1.50;;
75785;SDS011;64402;44.708;37.644;2023-05-10T06:10:36;3.80;;;1.15;;
75785;SDS011;64402;44.708;37.644;2023-05-10T06:13:03;3.50;;;1.00;;
75785;SDS011;64402;44.708;37.644;2023-05-10T06:15:29;4.30;;;0.80;;
75785;SDS011;64402;44.708;37.644;2023-05-10T06:17:56;2.28;;;0.68;;
75785;SDS011;64402;44.708;37.644;2023-05-10T06:20:22;1.92;;;0.77;;
75785;SDS011;64402;44.708;37.644;2023-05-10T06:22:48;2.85;;;0.73;;
75785;SDS011;64402;44.708;37.644;2023-05-10T06:25:14;2.20;;;0.73;;
75785;SDS011;64402;44.708;37.644;2023-05-10T06:27:43;2.70;;;0.85;;
75785;SDS011;64402;44.708;37.644;2023-05-10T06:30:10;2.70;;;0.85;;
75785;SDS011;64402;44.708;37.644;2023-05-10T06:32:38;3.22;;;0.70;;
75785;SDS011;64402;44.708;37.644;2023-05-10T06:35:05;2.60;;;0.63;;
75785;SDS011;64402;44.708;37.644;2023-05-10T06:37:31;5.85;;;0.77;;
75785;SDS011;64402;44.708;37.644;2023-05-10T06:39:57;1.25;;;0.60;;
75785;SDS011;64402;44.708;37.644;2023-05-10T06:42:23;1.77;;;0.60;;
75785;SDS011;64402;44.708;37.644;2023-05-10T06:44:51;2.38;;;0.85;;
75785;SDS011;64402;44.708;37.644;2023-05-10T06:47:17;2.15;;;0.57;;
75785;SDS011;64402;44.708;37.644;2023-05-10T06:49:43;4.35;;;0.73;;
75785;SDS011;64402;44.708;37.644;2023-05-10T06:52:09;5.03;;;1.58;;
75785;SDS011;64402;44.708;37.644;2023-05-10T06:54:35;3.95;;;1.08;;
75785;SDS011;64402;44.708;37.644;2023-05-10T06:57:02;6.95;;;1.58;;
75785;SDS011;64402;44.708;37.644;2023-05-10T06:59:28;5.07;;;1.02;;
75785;SDS011;64402;44.708;37.644;2023-05-10T07:01:54;3.33;;;0.85;;
75785;SDS011;64402;44.708;37.644;2023-05-10T07:04:20;4.00;;;1.00;;
75785;SDS011;64402;44.708;37.644;2023-05-10T07:06:47;5.13;;;0.80;;
75785;SDS011;64402;44.708;37.644;2023-05-10T07:09:15;4.00;;;1.08;;
75785;SDS011;64402;44.708;37.644;2023-05-10T07:11:41;1.95;;;0.77;;
75785;SDS011;64402;44.708;37.644;2023-05-10T07:14:07;2.28;;;0.55;;
75785;SDS011;64402;44.708;37.644;2023-05-10T07:16:33;2.58;;;0.70;;
75785;SDS011;64402;44.708;37.644;2023-05-10T07:18:59;4.93;;;0.70;;
75785;SDS011;64402;44.708;37.644;2023-05-10T07:21:26;6.53;;;1.00;;
75785;SDS011;64402;44.708;37.644;2023-05-10T07:23:54;4.80;;;1.52;;
75785;SDS011;64402;44.708;37.644;2023-05-10T07:26:20;4.43;;;1.40;;
75785;SDS011;64402;44.708;37.644;2023-05-10T07:28:47;6.55;;;1.30;;
75785;SDS011;64402;44.708;37.644;2023-05-10T07:31:13;4.60;;;1.38;;
75785;SDS011;64402;44.708;37.644;2023-05-10T07:33:40;6.97;;;1.40;;
75785;SDS011;64402;44.708;37.644;2023-05-10T07:36:06;4.88;;;1.20;;
75785;SDS011;64402;44.708;37.644;2023-05-10T07:38:32;2.95;;;1.10;;
75785;SDS011;64402;44.708;37.644;2023-05-10T07:40:59;6.22;;;1.10;;
75785;SDS011;64402;44.708;37.644;2023-05-10T07:43:25;3.40;;;0.85;;
75785;SDS011;64402;44.708;37.644;2023-05-10T07:45:52;4.97;;;2.00;;
75785;SDS011;64402;44.708;37.644;2023-05-10T07:48:18;3.08;;;0.73;;
75785;SDS011;64402;44.708;37.644;2023-05-10T07:50:45;4.75;;;0.90;;
75785;SDS011;64402;44.708;37.644;2023-05-10T07:53:11;5.20;;;1.45;;
75785;SDS011;64402;44.708;37.644;2023-05-10T07:55:37;7.35;;;2.13;;
75785;SDS011;64402;44.708;37.644;2023-05-10T07:58:04;8.15;;;2.40;;
75785;SDS011;64402;44.708;37.644;2023-05-10T08:00:30;8.00;;;1.83;;
75785;SDS011;64402;44.708;37.644;2023-05-10T08:02:56;5.78;;;1.60;;
75785;SDS011;64402;44.708;37.644;2023-05-10T08:05:23;4.97;;;1.67;;
75785;SDS011;64402;44.708;37.644;2023-05-10T08:07:49;6.95;;;1.80;;
75785;SDS011;64402;44.708;37.644;2023-05-10T08:10:16;6.60;;;1.42;;
75785;SDS011;64402;44.708;37.644;2023-05-10T08:12:42;5.78;;;1.60;;
75785;SDS011;64402;44.708;37.644;2023-05-10T08:15:09;4.40;;;1.27;;
75785;SDS011;64402;44.708;37.644;2023-05-10T08:17:35;4.25;;;1.20;;
75785;SDS011;64402;44.708;37.644;2023-05-10T08:20:02;5.40;;;1.33;;
75785;SDS011;64402;44.708;37.644;2023-05-10T08:22:28;4.18;;;0.90;;
75785;SDS011;64402;44.708;37.644;2023-05-10T08:24:54;4.32;;;0.82;;
75785;SDS011;64402;44.708;37.644;2023-05-10T08:27:20;4.40;;;1.35;;
75785;SDS011;64402;44.708;37.644;2023-05-10T08:29:47;4.95;;;1.20;;
75785;SDS011;64402;44.708;37.644;2023-05-10T08:32:13;3.75;;;0.93;;
75785;SDS011;64402;44.708;37.644;2023-05-10T08:34:39;5.03;;;1.23;;
75785;SDS011;64402;44.708;37.644;2023-05-10T08:37:06;3.30;;;1.27;;
75785;SDS011;64402;44.708;37.644;2023-05-10T08:39:35;2.95;;;1.00;;
75785;SDS011;64402;44.708;37.644;2023-05-10T08:42:02;4.97;;;1.33;;
75785;SDS011;64402;44.708;37.644;2023-05-10T08:44:34;3.38;;;0.95;;
75785;SDS011;64402;44.708;37.644;2023-05-10T08:49:31;5.10;;;1.20;;
75785;SDS011;64402;44.708;37.644;2023-05-10T08:51:59;6.80;;;1.40;;
75785;SDS011;64402;44.708;37.644;2023-05-10T08:54:31;1.38;;;0.70;;
75785;SDS011;64402;44.708;37.644;2023-05-10T08:56:58;2.30;;;1.00;;
75785;SDS011;64402;44.708;37.644;2023-05-10T08:59:24;2.30;;;0.80;;
75785;SDS011;64402;44.708;37.644;2023-05-10T09:01:51;2.63;;;0.90;;
75785;SDS011;64402;44.708;37.644;2023-05-10T09:04:19;2.17;;;0.90;;
75785;SDS011;64402;44.708;37.644;2023-05-10T09:06:46;6.05;;;1.02;;
75785;SDS011;64402;44.708;37.644;2023-05-10T09:09:12;5.22;;;0.80;;
75785;SDS011;64402;44.708;37.644;2023-05-10T09:11:38;3.83;;;1.00;;
75785;SDS011;64402;44.708;37.644;2023-05-10T09:14:05;2.88;;;0.90;;
75785;SDS011;64402;44.708;37.644;2023-05-10T09:16:31;1.42;;;0.68;;
75785;SDS011;64402;44.708;37.644;2023-05-10T09:18:57;3.78;;;1.00;;
75785;SDS011;64402;44.708;37.644;2023-05-10T09:21:24;1.65;;;0.90;;
75785;SDS011;64402;44.708;37.644;2023-05-10T09:23:50;6.00;;;1.35;;
75785;SDS011;64402;44.708;37.644;2023-05-10T09:26:23;6.07;;;1.40;;
75785;SDS011;64402;44.708;37.644;2023-05-10T09:28:50;18.73;;;1.95;;
75785;SDS011;64402;44.708;37.644;2023-05-10T09:31:17;3.03;;;0.95;;
75785;SDS011;64402;44.708;37.644;2023-05-10T09:33:43;6.40;;;1.00;;
75785;SDS011;64402;44.708;37.644;2023-05-10T09:36:11;6.03;;;1.25;;
75785;SDS011;64402;44.708;37.644;2023-05-10T09:38:51;3.35;;;0.90;;
75785;SDS011;64402;44.708;37.644;2023-05-10T09:41:21;4.97;;;1.50;;
75785;SDS011;64402;44.708;37.644;2023-05-10T09:43:49;5.25;;;1.00;;
75785;SDS011;64402;44.708;37.644;2023-05-10T09:46:16;2.85;;;0.88;;
75785;SDS011;64402;44.708;37.644;2023-05-10T09:48:43;7.22;;;1.40;;
75785;SDS011;64402;44.708;37.644;2023-05-10T09:51:18;5.63;;;1.00;;
75785;SDS011;64402;44.708;37.644;2023-05-10T09:53:47;6.30;;;1.42;;
75785;SDS011;64402;44.708;37.644;2023-05-10T09:56:34;2.45;;;0.90;;
75785;SDS011;64402;44.708;37.644;2023-05-10T09:59:03;2.90;;;0.88;;
75785;SDS011;64402;44.708;37.644;2023-05-10T10:01:29;2.10;;;0.70;;
75785;SDS011;64402;44.708;37.644;2023-05-10T10:03:55;3.50;;;1.10;;
75785;SDS011;64402;44.708;37.644;2023-05-10T10:06:23;2.50;;;0.90;;
75785;SDS011;64402;44.708;37.644;2023-05-10T10:08:50;6.00;;;1.10;;
75785;SDS011;64402;44.708;37.644;2023-05-10T10:13:44;5.07;;;1.60;;
75785;SDS011;64402;44.708;37.644;2023-05-10T10:16:10;5.30;;;1.92;;
75785;SDS011;64402;44.708;37.644;2023-05-10T10:18:36;7.15;;;2.33;;
75785;SDS011;64402;44.708;37.644;2023-05-10T10:21:10;7.07;;;2.40;;
75785;SDS011;64402;44.708;37.644;2023-05-10T10:23:38;5.95;;;2.30;;
75785;SDS011;64402;44.708;37.644;2023-05-10T10:26:04;8.20;;;2.25;;
75785;SDS011;64402;44.708;37.644;2023-05-10T10:28:35;6.80;;;1.90;;
75785;SDS011;64402;44.708;37.644;2023-05-10T10:31:21;4.10;;;1.70;;
75785;SDS011;64402;44.708;37.644;2023-05-10T10:34:09;4.90;;;1.80;;
75785;SDS011;64402;44.708;37.644;2023-05-10T10:36:46;7.45;;;1.98;;
75785;SDS011;64402;44.708;37.644;2023-05-10T10:39:15;4.57;;;1.65;;
75785;SDS011;64402;44.708;37.644;2023-05-10T10:42:00;5.18;;;1.70;;
75785;SDS011;64402;44.708;37.644;2023-05-10T10:49:31;5.57;;;1.83;;
75785;SDS011;64402;44.708;37.644;2023-05-10T10:55:01;8.77;;;1.40;;
75785;SDS011;64402;44.708;37.644;2023-05-10T10:57:33;4.28;;;1.65;;
75785;SDS011;64402;44.708;37.644;2023-05-10T11:02:49;3.70;;;1.10;;
75785;SDS011;64402;44.708;37.644;2023-05-10T11:05:23;3.67;;;1.33;;
75785;SDS011;64402;44.708;37.644;2023-05-10T11:07:59;4.10;;;1.08;;
75785;SDS011;64402;44.708;37.644;2023-05-10T11:10:32;4.13;;;1.10;;
75785;SDS011;64402;44.708;37.644;2023-05-10T11:12:59;3.90;;;1.00;;
75785;SDS011;64402;44.708;37.644;2023-05-10T11:15:31;4.43;;;1.27;;
75785;SDS011;64402;44.708;37.644;2023-05-10T15:58:39;4.53;;;1.55;;
75785;SDS011;64402;44.708;37.644;2023-05-10T16:01:06;6.05;;;1.75;;
75785;SDS011;64402;44.708;37.644;2023-05-10T16:03:33;6.10;;;1.60;;
75785;SDS011;64402;44.708;37.644;2023-05-10T16:05:59;5.20;;;1.42;;
75785;SDS011;64402;44.708;37.644;2023-05-10T16:08:26;4.40;;;1.42;;
75785;SDS011;64402;44.708;37.644;2023-05-10T16:10:55;5.85;;;1.73;;
75785;SDS011;64402;44.708;37.644;2023-05-10T16:13:21;6.97;;;1.50;;
75785;SDS011;64402;44.708;37.644;2023-05-10T16:15:48;5.50;;;1.65;;
75785;SDS011;64402;44.708;37.644;2023-05-10T16:18:14;5.53;;;1.55;;
75785;SDS011;64402;44.708;37.644;2023-05-10T16:20:42;6.07;;;1.80;;
75785;SDS011;64402;44.708;37.644;2023-05-10T16:23:09;6.65;;;2.08;;
75785;SDS011;64402;44.708;37.644;2023-05-10T16:25:36;8.00;;;2.30;;
75785;SDS011;64402;44.708;37.644;2023-05-10T16:28:02;8.23;;;2.63;;
75785;SDS011;64402;44.708;37.644;2023-05-10T16:30:28;7.63;;;2.25;;
75785;SDS011;64402;44.708;37.644;2023-05-10T16:32:58;8.02;;;2.78;;
75785;SDS011;64402;44.708;37.644;2023-05-10T16:37:29;5.72;;;2.03;;
75785;SDS011;64402;44.708;37.644;2023-05-10T16:39:55;7.57;;;2.35;;
75785;SDS011;64402;44.708;37.644;2023-05-10T16:42:22;8.63;;;2.42;;
75785;SDS011;64402;44.708;37.644;2023-05-10T16:47:15;7.03;;;2.17;;
75785;SDS011;64402;44.708;37.644;2023-05-10T16:49:41;8.52;;;2.35;;
75785;SDS011;64402;44.708;37.644;2023-05-10T16:52:07;10.90;;;2.28;;
75785;SDS011;64402;44.708;37.644;2023-05-10T16:54:33;5.20;;;2.38;;
75785;SDS011;64402;44.708;37.644;2023-05-10T16:57:00;6.68;;;2.60;;
75785;SDS011;64402;44.708;37.644;2023-05-10T16:59:26;7.60;;;2.60;;
75785;SDS011;64402;44.708;37.644;2023-05-10T17:01:53;24.42;;;9.63;;
75785;SDS011;64402;44.708;37.644;2023-05-10T17:04:22;22.85;;;8.50;;
75785;SDS011;64402;44.708;37.644;2023-05-10T17:06:48;46.58;;;17.33;;
75785;SDS011;64402;44.708;37.644;2023-05-10T17:09:14;49.58;;;17.05;;
75785;SDS011;64402;44.708;37.644;2023-05-10T17:11:40;40.22;;;13.02;;
75785;SDS011;64402;44.708;37.644;2023-05-10T17:14:06;31.95;;;10.70;;
75785;SDS011;64402;44.708;37.644;2023-05-10T17:16:32;32.35;;;10.77;;
75785;SDS011;64402;44.708;37.644;2023-05-10T17:19:00;37.20;;;11.88;;
75785;SDS011;64402;44.708;37.644;2023-05-10T17:21:26;32.28;;;11.60;;
75785;SDS011;64402;44.708;37.644;2023-05-10T17:23:52;38.75;;;13.35;;
75785;SDS011;64402;44.708;37.644;2023-05-10T17:26:19;33.08;;;12.35;;
75785;SDS011;64402;44.708;37.644;2023-05-10T17:31:12;30.50;;;10.57;;
75785;SDS011;64402;44.708;37.644;2023-05-10T17:33:39;41.33;;;15.45;;
75785;SDS011;64402;44.708;37.644;2023-05-10T17:36:05;39.13;;;15.20;;
75785;SDS011;64402;44.708;37.644;2023-05-10T17:38:32;21.05;;;7.55;;
75785;SDS011;64402;44.708;37.644;2023-05-10T17:40:58;13.23;;;5.60;;
75785;SDS011;64402;44.708;37.644;2023-05-10T17:43:25;11.65;;;5.63;;
75785;SDS011;64402;44.708;37.644;2023-05-10T17:45:51;18.23;;;6.20;;
75785;SDS011;64402;44.708;37.644;2023-05-10T17:48:18;14.88;;;6.40;;
75785;SDS011;64402;44.708;37.644;2023-05-10T17:50:44;13.85;;;6.38;;
75785;SDS011;64402;44.708;37.644;2023-05-10T17:53:10;13.95;;;6.78;;
75785;SDS011;64402;44.708;37.644;2023-05-10T17:55:40;16.75;;;6.80;;
75785;SDS011;64402;44.708;37.644;2023-05-10T17:58:08;16.20;;;6.57;;
75785;SDS011;64402;44.708;37.644;2023-05-10T18:00:35;18.75;;;6.43;;
75785;SDS011;64402;44.708;37.644;2023-05-10T18:03:03;13.73;;;5.97;;
75785;SDS011;64402;44.708;37.644;2023-05-10T18:05:30;15.10;;;5.05;;
75785;SDS011;64402;44.708;37.644;2023-05-10T18:08:00;14.55;;;5.55;;
75785;SDS011;64402;44.708;37.644;2023-05-10T18:10:27;11.63;;;4.47;;
75785;SDS011;64402;44.708;37.644;2023-05-10T18:12:53;11.15;;;4.30;;
75785;SDS011;64402;44.708;37.644;2023-05-10T18:15:19;13.55;;;4.38;;
75785;SDS011;64402;44.708;37.644;2023-05-10T18:17:47;14.95;;;4.63;;
75785;SDS011;64402;44.708;37.644;2023-05-10T18:22:40;12.20;;;4.30;;
75785;SDS011;64402;44.708;37.644;2023-05-10T18:25:06;12.50;;;5.05;;
75785;SDS011;64402;44.708;37.644;2023-05-10T18:27:32;16.83;;;5.50;;
75785;SDS011;64402;44.708;37.644;2023-05-10T18:29:59;15.73;;;4.90;;
75785;SDS011;64402;44.708;37.644;2023-05-10T18:32:25;11.70;;;5.28;;
75785;SDS011;64402;44.708;37.644;2023-05-10T18:34:52;13.50;;;6.45;;
75785;SDS011;64402;44.708;37.644;2023-05-10T18:37:18;24.27;;;5.55;;
75785;SDS011;64402;44.708;37.644;2023-05-10T18:39:45;13.00;;;4.78;;
75785;SDS011;64402;44.708;37.644;2023-05-10T18:42:12;9.98;;;4.43;;
75785;SDS011;64402;44.708;37.644;2023-05-10T18:44:38;13.57;;;4.53;;
75785;SDS011;64402;44.708;37.644;2023-05-10T18:47:04;12.73;;;4.50;;
75785;SDS011;64402;44.708;37.644;2023-05-10T18:49:30;11.07;;;4.07;;
75785;SDS011;64402;44.708;37.644;2023-05-10T18:51:56;9.40;;;3.95;;
75785;SDS011;64402;44.708;37.644;2023-05-10T18:54:23;8.93;;;4.07;;
75785;SDS011;64402;44.708;37.644;2023-05-10T18:56:49;10.52;;;4.60;;
75785;SDS011;64402;44.708;37.644;2023-05-10T18:59:15;11.70;;;4.25;;
75785;SDS011;64402;44.708;37.644;2023-05-10T19:01:41;11.63;;;3.92;;
75785;SDS011;64402;44.708;37.644;2023-05-10T19:04:08;9.48;;;4.30;;
75785;SDS011;64402;44.708;37.644;2023-05-10T19:06:34;10.27;;;4.25;;
75785;SDS011;64402;44.708;37.644;2023-05-10T19:09:00;8.90;;;3.85;;
75785;SDS011;64402;44.708;37.644;2023-05-10T19:11:26;16.45;;;4.22;;
75785;SDS011;64402;44.708;37.644;2023-05-10T19:13:56;10.15;;;5.53;;
75785;SDS011;64402;44.708;37.644;2023-05-10T19:16:22;12.02;;;5.55;;
75785;SDS011;64402;44.708;37.644;2023-05-10T19:18:48;10.25;;;4.50;;
75785;SDS011;64402;44.708;37.644;2023-05-10T19:21:15;11.27;;;3.88;;
75785;SDS011;64402;44.708;37.644;2023-05-10T19:23:41;12.75;;;4.43;;
75785;SDS011;64402;44.708;37.644;2023-05-10T19:26:08;9.07;;;3.83;;
75785;SDS011;64402;44.708;37.644;2023-05-10T19:28:35;11.15;;;4.10;;
75785;SDS011;64402;44.708;37.644;2023-05-10T19:31:01;14.27;;;4.30;;
75785;SDS011;64402;44.708;37.644;2023-05-10T19:33:28;9.57;;;4.35;;
75785;SDS011;64402;44.708;37.644;2023-05-10T19:35:54;11.45;;;4.00;;
75785;SDS011;64402;44.708;37.644;2023-05-10T19:38:21;9.73;;;4.43;;
75785;SDS011;64402;44.708;37.644;2023-05-10T19:40:53;13.27;;;4.50;;
75785;SDS011;64402;44.708;37.644;2023-05-10T19:43:23;9.88;;;4.15;;
75785;SDS011;64402;44.708;37.644;2023-05-10T19:45:53;10.57;;;4.35;;
75785;SDS011;64402;44.708;37.644;2023-05-10T19:48:23;11.35;;;4.82;;
75785;SDS011;64402;44.708;37.644;2023-05-10T19:50:50;12.77;;;4.32;;
75785;SDS011;64402;44.708;37.644;2023-05-10T19:53:16;10.07;;;4.45;;
75785;SDS011;64402;44.708;37.644;2023-05-10T19:55:42;10.85;;;4.50;;
75785;SDS011;64402;44.708;37.644;2023-05-10T19:58:09;12.82;;;4.93;;
75785;SDS011;64402;44.708;37.644;2023-05-10T20:00:35;12.10;;;4.60;;